createdAt,value
2018-02-24T00:00:30.806Z,20.63
2018-02-24T00:02:59.352Z,20.73
2018-02-24T00:05:27.865Z,21.30
2018-02-24T00:07:56.318Z,20.73
2018-02-24T00:10:24.781Z,20.20
2018-02-24T00:12:53.317Z,20.00
2018-02-24T00:15:21.782Z,20.83
2018-02-24T00:17:50.288Z,20.07
2018-02-24T00:20:18.774Z,19.53
2018-02-24T00:22:47.269Z,20.03
2018-02-24T00:25:15.769Z,21.07
2018-02-24T00:27:44.266Z,19.70
2018-02-24T00:30:12.716Z,19.67
2018-02-24T00:32:41.185Z,20.77
2018-02-24T00:35:09.699Z,21.67
2018-02-24T00:37:38.198Z,21.07
2018-02-24T00:40:06.683Z,22.40
2018-02-24T00:42:35.222Z,20.03
2018-02-24T00:45:03.681Z,21.47
2018-02-24T00:47:32.146Z,20.40
2018-02-24T00:50:00.663Z,20.30
2018-02-24T00:52:29.118Z,21.33
2018-02-24T00:54:57.654Z,20.37
2018-02-24T00:57:26.135Z,19.57
2018-02-24T00:59:54.626Z,20.40
2018-02-24T01:02:23.158Z,21.50
2018-02-24T01:04:51.704Z,21.23
2018-02-24T01:07:20.189Z,20.73
2018-02-24T01:09:48.730Z,22.07
2018-02-24T01:12:17.189Z,22.30
2018-02-24T01:14:45.717Z,22.57
2018-02-24T01:17:14.213Z,21.63
2018-02-24T01:19:42.742Z,21.73
2018-02-24T01:22:11.201Z,20.97
2018-02-24T01:24:39.706Z,21.00
2018-02-24T01:27:08.174Z,23.47
2018-02-24T01:29:36.646Z,22.40
2018-02-24T01:32:05.197Z,21.87
2018-02-24T01:34:33.717Z,22.87
2018-02-24T01:37:02.210Z,23.87
2018-02-24T01:39:30.703Z,23.40
2018-02-24T01:41:59.162Z,23.80
2018-02-24T01:44:27.688Z,24.67
2018-02-24T01:46:56.190Z,24.10
2018-02-24T01:49:24.675Z,24.20
2018-02-24T01:51:53.166Z,23.83
2018-02-24T01:54:21.643Z,23.20
2018-02-24T01:56:50.137Z,23.87
2018-02-24T01:59:18.585Z,22.90
2018-02-24T02:01:47.074Z,22.73
2018-02-24T02:04:15.555Z,22.27
2018-02-24T02:06:44.098Z,23.63
2018-02-24T02:09:12.574Z,23.87
2018-02-24T02:11:41.070Z,22.27
2018-02-24T02:14:09.562Z,23.57
2018-02-24T02:16:38.032Z,22.83
2018-02-24T02:19:06.500Z,22.67
2018-02-24T02:21:35.080Z,22.17
2018-02-24T02:24:03.598Z,21.67
2018-02-24T02:26:32.057Z,22.20
2018-02-24T02:29:00.550Z,20.33
2018-02-24T02:31:29.014Z,22.03
2018-02-24T02:33:57.538Z,21.07
2018-02-24T02:36:26.060Z,20.63
2018-02-24T02:38:54.558Z,19.70
2018-02-24T02:41:23.075Z,21.77
2018-02-24T02:43:51.570Z,20.80
2018-02-24T02:46:20.065Z,20.90
2018-02-24T02:48:48.526Z,21.87
2018-02-24T02:51:17.032Z,21.43
2018-02-24T02:53:45.507Z,21.43
2018-02-24T02:56:13.998Z,20.27
2018-02-24T02:58:42.505Z,19.90
2018-02-24T03:01:10.953Z,21.13
2018-02-24T03:03:39.458Z,22.77
2018-02-24T03:06:07.985Z,21.17
2018-02-24T03:08:36.442Z,20.63
2018-02-24T03:11:04.979Z,20.37
2018-02-24T03:13:33.483Z,20.87
2018-02-24T03:16:01.991Z,22.90
2018-02-24T03:18:30.465Z,21.80
2018-02-24T03:20:58.917Z,22.47
2018-02-24T03:23:27.405Z,23.50
2018-02-24T03:25:55.905Z,24.43
2018-02-24T03:28:24.394Z,22.23
2018-02-24T03:30:52.903Z,22.67
2018-02-24T03:33:21.421Z,22.20
2018-02-24T03:35:49.882Z,21.23
2018-02-24T03:38:18.382Z,23.63
2018-02-24T03:40:46.905Z,23.20
2018-02-24T03:43:15.357Z,25.13
2018-02-24T03:45:53.796Z,25.63
2018-02-24T03:48:22.258Z,24.20
2018-02-24T03:50:50.737Z,23.60
2018-02-24T03:53:19.200Z,24.27
2018-02-24T03:55:47.689Z,22.33
2018-02-24T03:58:16.187Z,22.87
2018-02-24T04:00:44.674Z,23.40
2018-02-24T04:03:13.228Z,23.63
2018-02-24T04:05:41.706Z,23.33
2018-02-24T04:08:10.157Z,23.60
2018-02-24T04:10:38.702Z,22.80
2018-02-24T04:13:07.216Z,23.60
2018-02-24T04:15:35.721Z,23.93
2018-02-24T04:18:04.268Z,23.50
2018-02-24T04:20:32.725Z,22.27
2018-02-24T04:23:01.214Z,23.30
2018-02-24T04:25:29.670Z,24.80
2018-02-24T04:27:58.164Z,23.27
2018-02-24T04:30:26.626Z,23.63
2018-02-24T04:32:55.122Z,24.17
2018-02-24T04:35:23.644Z,25.17
2018-02-24T04:37:52.102Z,25.10
2018-02-24T04:40:20.617Z,25.23
2018-02-24T04:42:49.114Z,23.57
2018-02-24T04:45:17.610Z,26.77
2018-02-24T04:47:46.100Z,28.73
2018-02-24T04:50:14.617Z,30.00
2018-02-24T04:52:43.115Z,30.97
2018-02-24T04:55:11.571Z,29.60
2018-02-24T04:57:40.065Z,28.17
2018-02-24T05:00:08.614Z,27.37
2018-02-24T05:02:37.153Z,25.53
2018-02-24T05:05:05.644Z,25.53
2018-02-24T05:07:34.154Z,25.57
2018-02-24T05:10:02.634Z,26.90
2018-02-24T05:12:31.108Z,25.80
2018-02-24T05:14:59.601Z,25.97
2018-02-24T05:17:28.111Z,27.37
2018-02-24T05:19:56.602Z,26.13
2018-02-24T05:22:25.106Z,25.47
2018-02-24T05:24:53.575Z,31.33
2018-02-24T05:27:22.103Z,29.17
2018-02-24T05:29:50.598Z,28.20
2018-02-24T05:32:19.069Z,29.67
2018-02-24T05:34:47.570Z,30.67
2018-02-24T05:37:16.080Z,29.90
2018-02-24T05:39:44.557Z,30.23
2018-02-24T05:42:13.045Z,31.23
2018-02-24T05:44:41.578Z,30.97
2018-02-24T05:47:10.050Z,31.40
2018-02-24T05:49:38.576Z,30.87
2018-02-24T05:52:07.101Z,32.47
2018-02-24T05:54:35.560Z,32.80
2018-02-24T05:57:04.070Z,37.23
2018-02-24T05:59:32.594Z,42.03
2018-02-24T06:02:01.087Z,45.30
2018-02-24T06:04:29.597Z,33.67
2018-02-24T06:06:58.079Z,64.60
2018-02-24T06:09:26.583Z,98.73
2018-02-24T06:11:55.078Z,96.90
2018-02-24T06:14:23.577Z,84.53
2018-02-24T06:16:52.041Z,44.67
2018-02-24T06:19:20.574Z,31.67
2018-02-24T06:21:49.046Z,32.33
2018-02-24T06:24:17.501Z,31.80
2018-02-24T06:26:46.027Z,32.77
2018-02-24T06:29:14.481Z,32.80
2018-02-24T06:31:42.939Z,33.23
2018-02-24T06:34:11.460Z,34.77
2018-02-24T06:36:39.982Z,36.13
2018-02-24T06:39:08.507Z,32.37
2018-02-24T06:41:37.011Z,32.43
2018-02-24T06:44:05.505Z,30.87
2018-02-24T06:46:33.966Z,32.60
2018-02-24T06:49:02.458Z,32.87
2018-02-24T06:51:30.990Z,32.13
2018-02-24T06:53:59.446Z,34.50
2018-02-24T06:56:27.953Z,33.10
2018-02-24T06:58:56.447Z,34.10
2018-02-24T07:01:24.952Z,31.47
2018-02-24T07:03:53.414Z,45.77
2018-02-24T07:06:21.914Z,33.00
2018-02-24T07:08:50.436Z,33.57
2018-02-24T07:11:18.918Z,35.27
2018-02-24T07:13:47.450Z,33.30
2018-02-24T07:16:15.914Z,35.23
2018-02-24T07:18:44.445Z,39.73
2018-02-24T07:21:12.913Z,39.00
2018-02-24T07:23:41.419Z,36.20
2018-02-24T07:26:09.894Z,33.60
2018-02-24T07:28:38.390Z,33.63
2018-02-24T07:31:06.882Z,31.37
2018-02-24T07:33:35.370Z,30.20
2018-02-24T07:36:03.862Z,30.40
2018-02-24T07:38:32.342Z,28.60
2018-02-24T07:41:00.842Z,30.23
2018-02-24T07:43:29.342Z,30.40
2018-02-24T07:45:57.802Z,29.03
2018-02-24T07:48:26.310Z,32.87
2018-02-24T07:50:54.766Z,33.60
2018-02-24T07:53:23.266Z,29.43
2018-02-24T07:55:51.722Z,63.97
2018-02-24T07:58:20.178Z,60.07
2018-02-24T08:00:48.673Z,44.23
2018-02-24T08:03:17.130Z,41.23
2018-02-24T08:05:45.635Z,148.73
2018-02-24T08:08:14.098Z,57.90
2018-02-24T08:10:42.599Z,74.27
2018-02-24T08:13:11.087Z,42.97
2018-02-24T08:15:39.544Z,43.03
2018-02-24T08:18:08.057Z,76.20
2018-02-24T08:20:36.528Z,60.73
2018-02-24T08:23:05.023Z,44.53
2018-02-24T08:25:33.494Z,35.13
2018-02-24T08:28:02.013Z,34.00
2018-02-24T08:30:30.518Z,34.73
2018-02-24T08:32:58.990Z,55.90
2018-02-24T08:35:27.446Z,53.07
2018-02-24T08:37:55.951Z,33.47
2018-02-24T08:40:24.511Z,57.17
2018-02-24T08:42:52.973Z,56.47
2018-02-24T08:45:21.466Z,56.33
2018-02-24T08:47:49.974Z,38.77
2018-02-24T08:50:18.450Z,23.83
2018-02-24T08:52:46.943Z,28.90
2018-02-24T08:55:15.445Z,27.67
2018-02-24T08:57:43.968Z,25.13
2018-02-24T09:00:12.430Z,26.13
2018-02-24T09:02:40.933Z,25.50
2018-02-24T09:05:09.404Z,25.47
2018-02-24T09:07:37.916Z,27.97
2018-02-24T09:10:06.425Z,29.07
2018-02-24T09:12:34.892Z,30.97
2018-02-24T09:15:03.403Z,33.80
2018-02-24T09:17:31.908Z,27.63
2018-02-24T09:20:00.369Z,26.87
2018-02-24T09:22:28.872Z,30.83
2018-02-24T09:24:57.336Z,31.87
2018-02-24T09:27:25.840Z,58.63
2018-02-24T09:29:54.298Z,42.63
2018-02-24T09:32:22.786Z,44.37
2018-02-24T09:34:51.287Z,42.07
2018-02-24T09:37:19.754Z,29.37
2018-02-24T09:39:48.249Z,29.90
2018-02-24T09:42:16.710Z,25.37
2018-02-24T09:44:45.183Z,36.30
2018-02-24T09:47:13.647Z,36.83
2018-02-24T09:49:42.137Z,61.53
2018-02-24T09:52:10.646Z,38.53
2018-02-24T09:54:39.109Z,27.97
2018-02-24T09:57:07.566Z,35.67
2018-02-24T09:59:36.058Z,29.87
2018-02-24T10:02:04.523Z,31.57
2018-02-24T10:04:33.034Z,22.60
2018-02-24T10:07:01.535Z,25.10
2018-02-24T10:09:30.023Z,33.27
2018-02-24T10:11:58.758Z,25.20
2018-02-24T10:14:27.253Z,21.60
2018-02-24T10:16:55.746Z,22.87
2018-02-24T10:19:24.212Z,25.33
2018-02-24T10:21:52.710Z,23.77
2018-02-24T10:24:21.166Z,37.17
2018-02-24T10:26:49.665Z,29.83
2018-02-24T10:29:18.136Z,22.83
2018-02-24T10:31:46.637Z,21.67
2018-02-24T10:34:15.122Z,23.00
2018-02-24T10:36:43.621Z,24.47
2018-02-24T10:39:12.109Z,21.87
2018-02-24T10:41:40.566Z,20.80
2018-02-24T10:44:09.062Z,21.40
2018-02-24T10:46:37.527Z,20.93
2018-02-24T10:49:15.660Z,21.17
2018-02-24T10:51:44.114Z,20.37
2018-02-24T10:54:12.620Z,19.50
2018-02-24T10:56:41.086Z,18.50
2018-02-24T10:59:09.582Z,16.13
2018-02-24T11:01:38.043Z,19.73
2018-02-24T11:04:06.567Z,22.50
2018-02-24T11:06:35.011Z,22.47
2018-02-24T11:09:03.536Z,29.13
2018-02-24T11:11:32.000Z,19.87
2018-02-24T11:14:00.497Z,30.97
2018-02-24T11:16:28.943Z,18.50
2018-02-24T11:18:57.430Z,19.27
2018-02-24T11:21:25.956Z,18.03
2018-02-24T11:23:54.427Z,18.13
2018-02-24T11:26:22.928Z,19.77
2018-02-24T11:28:51.422Z,19.47
2018-02-24T11:31:19.905Z,18.47
2018-02-24T11:33:48.359Z,20.27
2018-02-24T11:36:16.862Z,19.10
2018-02-24T11:38:45.321Z,18.30
2018-02-24T11:41:13.809Z,18.83
2018-02-24T11:43:42.334Z,18.70
2018-02-24T11:46:10.830Z,20.27
2018-02-24T11:48:39.321Z,18.80
2018-02-24T11:51:07.778Z,20.33
2018-02-24T11:53:36.305Z,23.67
2018-02-24T11:56:04.762Z,20.80
2018-02-24T11:58:33.245Z,21.63
2018-02-24T12:01:01.762Z,19.73
2018-02-24T12:03:30.246Z,18.03
2018-02-24T12:05:58.714Z,18.27
2018-02-24T12:08:27.206Z,17.87
2018-02-24T12:10:55.658Z,18.27
2018-02-24T12:13:24.222Z,17.47
2018-02-24T12:15:52.682Z,16.90
2018-02-24T12:18:21.178Z,16.83
2018-02-24T12:20:49.644Z,21.27
2018-02-24T12:23:18.125Z,22.33
2018-02-24T12:25:46.592Z,20.83
2018-02-24T12:28:15.126Z,18.00
2018-02-24T12:30:43.590Z,17.97
2018-02-24T12:33:12.089Z,18.17
2018-02-24T12:35:40.550Z,17.73
2018-02-24T12:38:09.057Z,16.73
2018-02-24T12:40:37.554Z,17.20
2018-02-24T12:43:06.054Z,16.90
2018-02-24T12:45:34.550Z,16.00
2018-02-24T12:48:03.051Z,16.67
2018-02-24T12:50:31.513Z,16.70
2018-02-24T12:53:00.025Z,16.37
2018-02-24T12:55:28.498Z,17.17
2018-02-24T12:57:56.959Z,16.67
2018-02-24T13:00:25.474Z,17.00
2018-02-24T13:02:53.973Z,15.93
2018-02-24T13:05:22.484Z,15.63
2018-02-24T13:07:50.942Z,16.23
2018-02-24T13:10:19.443Z,16.10
2018-02-24T13:12:47.902Z,14.13
2018-02-24T13:15:16.398Z,12.87
2018-02-24T13:17:44.890Z,13.20
2018-02-24T13:20:13.346Z,11.60
2018-02-24T13:22:41.839Z,12.10
2018-02-24T13:25:10.298Z,11.93
2018-02-24T13:27:38.795Z,12.03
2018-02-24T13:30:07.264Z,15.37
2018-02-24T13:32:35.758Z,14.27
2018-02-24T13:35:04.217Z,15.80
2018-02-24T13:37:32.741Z,15.40
2018-02-24T13:40:01.213Z,16.03
2018-02-24T13:42:29.719Z,15.93
2018-02-24T13:44:58.185Z,13.40
2018-02-24T13:47:26.706Z,13.97
2018-02-24T13:49:55.198Z,13.30
2018-02-24T13:52:23.692Z,14.97
2018-02-24T13:54:52.153Z,14.03
2018-02-24T13:57:20.660Z,15.97
2018-02-24T13:59:49.146Z,16.70
2018-02-24T14:02:17.606Z,15.67
2018-02-24T14:04:46.101Z,16.20
2018-02-24T14:07:14.557Z,15.53
2018-02-24T14:09:43.066Z,16.13
2018-02-24T14:12:11.566Z,16.27
2018-02-24T14:14:40.037Z,16.50
2018-02-24T14:17:08.559Z,16.63
2018-02-24T14:19:37.037Z,16.43
2018-02-24T14:22:05.490Z,16.13
2018-02-24T14:24:34.004Z,16.57
2018-02-24T14:27:02.506Z,15.77
2018-02-24T14:29:30.958Z,15.87
2018-02-24T14:31:59.415Z,18.17
2018-02-24T14:34:27.910Z,15.20
2018-02-24T14:36:56.410Z,15.67
2018-02-24T14:39:24.922Z,16.60
2018-02-24T14:41:53.375Z,17.83
2018-02-24T14:44:21.854Z,17.57
2018-02-24T14:46:50.343Z,17.67
2018-02-24T14:49:18.801Z,18.37
2018-02-24T14:51:47.289Z,18.67
2018-02-24T14:54:15.746Z,19.40
2018-02-24T14:56:44.257Z,17.70
2018-02-24T14:59:12.713Z,18.47
2018-02-24T15:01:41.166Z,18.23
2018-02-24T15:04:09.654Z,16.70
2018-02-24T15:06:38.182Z,18.37
2018-02-24T15:09:06.675Z,17.37
2018-02-24T15:11:35.292Z,20.23
2018-02-24T15:14:03.786Z,18.80
2018-02-24T15:16:32.289Z,19.10
2018-02-24T15:19:00.746Z,17.67
2018-02-24T15:21:29.261Z,18.23
2018-02-24T15:23:57.714Z,18.37
2018-02-24T15:26:26.215Z,17.63
2018-02-24T15:28:54.734Z,18.53
2018-02-24T15:31:23.198Z,19.53
2018-02-24T15:33:51.698Z,17.53
2018-02-24T15:36:20.230Z,18.67
2018-02-24T15:38:48.706Z,18.77
2018-02-24T15:41:17.206Z,17.87
2018-02-24T15:43:45.647Z,17.73
2018-02-24T15:46:14.122Z,17.70
2018-02-24T15:48:42.656Z,18.13
2018-02-24T15:51:11.110Z,18.20
2018-02-24T15:53:39.610Z,17.03
2018-02-24T15:56:08.098Z,16.47
2018-02-24T15:58:36.594Z,16.30
2018-02-24T16:01:05.088Z,15.70
2018-02-24T16:03:33.577Z,15.80
2018-02-24T16:06:02.069Z,15.77
2018-02-24T16:08:30.584Z,16.07
2018-02-24T16:10:59.086Z,18.43
2018-02-24T16:13:27.571Z,17.57
2018-02-24T16:15:56.075Z,17.93
2018-02-24T16:18:24.542Z,21.00
2018-02-24T16:20:53.052Z,20.07
2018-02-24T16:23:21.510Z,21.17
2018-02-24T16:25:49.970Z,20.83
2018-02-24T16:28:18.467Z,20.70
2018-02-24T16:30:46.951Z,21.30
2018-02-24T16:33:15.443Z,19.47
2018-02-24T16:35:43.902Z,20.40
2018-02-24T16:38:12.394Z,20.40
2018-02-24T16:40:40.891Z,18.83
2018-02-24T16:43:09.354Z,19.50
2018-02-24T16:45:37.868Z,19.23
2018-02-24T16:48:06.321Z,19.07
2018-02-24T16:50:35.409Z,19.27
2018-02-24T16:53:03.975Z,21.33
2018-02-24T16:55:32.417Z,22.00
2018-02-24T16:58:00.871Z,19.50
2018-02-24T17:00:29.420Z,18.37
2018-02-24T17:02:57.941Z,17.83
2018-02-24T17:05:26.410Z,17.17
2018-02-24T17:07:54.915Z,15.90
2018-02-24T17:10:23.391Z,15.87
2018-02-24T17:12:51.887Z,15.63
2018-02-24T17:15:20.348Z,16.10
2018-02-24T17:17:48.842Z,14.60
2018-02-24T17:20:17.313Z,16.10
2018-02-24T17:22:45.851Z,16.60
2018-02-24T17:25:14.346Z,16.67
2018-02-24T17:27:42.866Z,18.30
2018-02-24T17:30:11.326Z,19.50
2018-02-24T17:32:39.855Z,20.23
2018-02-24T17:35:08.345Z,18.27
2018-02-24T17:37:36.822Z,19.00
2018-02-24T17:40:05.331Z,18.13
2018-02-24T17:42:33.850Z,18.17
2018-02-24T17:45:02.321Z,17.60
2018-02-24T17:47:30.830Z,17.83
2018-02-24T17:49:59.306Z,17.80
2018-02-24T17:52:27.758Z,16.43
2018-02-24T17:54:56.278Z,16.57
2018-02-24T17:57:24.757Z,15.40
2018-02-24T17:59:53.214Z,14.70
2018-02-24T18:02:21.706Z,15.30
2018-02-24T18:04:50.211Z,15.27
2018-02-24T18:07:18.731Z,14.90
2018-02-24T18:09:47.191Z,17.40
2018-02-24T18:12:15.693Z,16.60
2018-02-24T18:14:44.180Z,16.93
2018-02-24T18:17:12.678Z,16.67
2018-02-24T18:19:41.188Z,16.17
2018-02-24T18:22:09.688Z,16.37
2018-02-24T18:24:38.150Z,16.67
2018-02-24T18:27:06.655Z,17.93
2018-02-24T18:29:35.146Z,22.67
2018-02-24T18:32:03.601Z,35.53
2018-02-24T18:34:32.095Z,23.53
2018-02-24T18:37:00.582Z,25.37
2018-02-24T18:39:29.073Z,26.33
2018-02-24T18:41:57.531Z,23.50
2018-02-24T18:44:26.083Z,38.83
2018-02-24T18:46:54.595Z,37.53
2018-02-24T18:49:23.068Z,23.17
2018-02-24T18:51:51.562Z,21.23
2018-02-24T18:54:20.058Z,20.90
2018-02-24T18:56:48.517Z,19.10
2018-02-24T18:59:16.970Z,18.97
2018-02-24T19:01:45.467Z,17.97
2018-02-24T19:04:13.986Z,18.33
2018-02-24T19:06:42.518Z,19.43
2018-02-24T19:09:10.974Z,16.97
2018-02-24T19:11:39.472Z,17.87
2018-02-24T19:14:07.953Z,18.33
2018-02-24T19:16:36.450Z,18.47
2018-02-24T19:19:04.941Z,17.43
2018-02-24T19:21:33.398Z,18.63
2018-02-24T19:24:01.898Z,17.83
2018-02-24T19:26:30.350Z,17.63
2018-02-24T19:28:58.814Z,18.03
2018-02-24T19:31:27.334Z,16.70
2018-02-24T19:33:55.826Z,16.57
2018-02-24T19:36:24.282Z,16.13
2018-02-24T19:38:52.783Z,16.53
2018-02-24T19:41:21.279Z,15.37
2018-02-24T19:43:49.746Z,15.60
2018-02-24T19:46:18.220Z,15.70
2018-02-24T19:48:46.714Z,14.70
2018-02-24T19:51:15.174Z,14.93
2018-02-24T19:53:43.666Z,14.03
2018-02-24T19:56:12.131Z,14.10
2018-02-24T19:58:40.636Z,15.40
2018-02-24T20:01:09.098Z,14.50
2018-02-24T20:03:37.585Z,13.90
2018-02-24T20:06:06.077Z,13.67
2018-02-24T20:08:34.584Z,13.90
2018-02-24T20:11:03.042Z,13.37
2018-02-24T20:13:31.534Z,15.10
2018-02-24T20:15:59.994Z,14.67
2018-02-24T20:18:28.480Z,15.20
2018-02-24T20:20:56.938Z,15.00
2018-02-24T20:23:25.432Z,14.50
2018-02-24T20:25:53.955Z,15.13
2018-02-24T20:28:22.419Z,14.07
2018-02-24T20:30:50.910Z,14.17
2018-02-24T20:33:19.376Z,14.17
2018-02-24T20:35:47.867Z,14.13
2018-02-24T20:38:16.334Z,13.10
2018-02-24T20:40:44.840Z,14.97
2018-02-24T20:43:13.306Z,15.60
2018-02-24T20:45:41.785Z,15.30
2018-02-24T20:48:10.314Z,16.43
2018-02-24T20:50:38.774Z,13.93
2018-02-24T20:53:07.270Z,14.53
2018-02-24T20:55:35.767Z,15.57
2018-02-24T20:58:05.018Z,16.53
2018-02-24T21:00:33.875Z,15.70
2018-02-24T21:03:02.369Z,16.63
2018-02-24T21:05:30.822Z,15.70
2018-02-24T21:07:59.299Z,15.60
2018-02-24T21:10:28.714Z,16.33
2018-02-24T21:12:57.166Z,16.87
2018-02-24T21:15:25.658Z,18.17
2018-02-24T21:17:54.158Z,17.33
2018-02-24T21:20:22.612Z,18.17
2018-02-24T21:22:51.121Z,17.67
2018-02-24T21:25:19.586Z,16.23
2018-02-24T21:27:48.054Z,16.50
2018-02-24T21:30:16.661Z,18.53
2018-02-24T21:32:45.122Z,14.47
2018-02-24T21:35:13.616Z,20.40
2018-02-24T21:37:42.128Z,27.07
2018-02-24T21:40:10.586Z,44.13
2018-02-24T21:42:39.080Z,24.20
2018-02-24T21:45:07.537Z,18.13
2018-02-24T21:47:36.040Z,20.40
2018-02-24T21:50:04.483Z,19.50
2018-02-24T21:52:32.970Z,18.57
2018-02-24T21:55:01.429Z,18.87
2018-02-24T21:57:29.958Z,20.13
2018-02-24T21:59:58.421Z,19.73
2018-02-24T22:02:26.914Z,16.07
2018-02-24T22:04:55.427Z,16.03
2018-02-24T22:07:24.543Z,16.27
2018-02-24T22:09:52.993Z,15.37
2018-02-24T22:12:21.481Z,16.13
2018-02-24T22:14:49.949Z,17.33
2018-02-24T22:17:18.442Z,16.37
2018-02-24T22:19:46.965Z,17.20
2018-02-24T22:22:15.468Z,17.60
2018-02-24T22:24:43.957Z,17.73
2018-02-24T22:27:12.450Z,20.00
2018-02-24T22:29:40.947Z,19.63
2018-02-24T22:32:09.439Z,21.17
2018-02-24T22:34:37.911Z,20.17
2018-02-24T22:37:06.402Z,19.53
2018-02-24T22:39:34.885Z,18.37
2018-02-24T22:42:03.438Z,21.33
2018-02-24T22:44:31.950Z,20.53
2018-02-24T22:47:00.412Z,21.90
2018-02-24T22:49:28.884Z,20.03
2018-02-24T22:51:57.378Z,20.00
2018-02-24T22:54:25.867Z,18.13
2018-02-24T22:56:54.324Z,17.63
2018-02-24T22:59:22.823Z,16.33
2018-02-24T23:01:51.314Z,18.20
2018-02-24T23:04:19.761Z,21.67
2018-02-24T23:06:48.222Z,16.43
2018-02-24T23:09:16.722Z,16.37
2018-02-24T23:11:45.190Z,16.23
2018-02-24T23:14:13.714Z,16.87
2018-02-24T23:16:42.166Z,15.87
2018-02-24T23:19:10.638Z,15.97
2018-02-24T23:21:39.098Z,15.30
2018-02-24T23:24:07.602Z,14.23
2018-02-24T23:26:36.066Z,13.53
2018-02-24T23:29:05.410Z,12.33
2018-02-24T23:31:33.958Z,12.57
2018-02-24T23:34:02.457Z,11.93
2018-02-24T23:36:30.953Z,12.63
2018-02-24T23:38:59.451Z,12.60
2018-02-24T23:41:27.915Z,12.63
2018-02-24T23:43:56.432Z,13.07
2018-02-24T23:46:24.897Z,12.20
2018-02-24T23:48:53.352Z,12.60
2018-02-24T23:51:21.886Z,12.40
2018-02-24T23:53:50.357Z,13.10
2018-02-24T23:56:18.857Z,13.10
2018-02-24T23:58:47.352Z,13.30
